Time;durP1;ratioP1;P1;durP2;ratioP2;P2;SDS_P1;SDS_P2;PMS_P1;PMS_P2;Temp;Humidity;BMP_temperature;BMP_pressure;BME280_temperature;BME280_humidity;BME280_pressure;Samples;Min_cycle;Max_cycle;Signal;HPM_P1;HPM_P2
2023/12/31 00:00:12;;;;;;;4.22;1.60;;;;;;;6.91;100.00;100323.25;5088846;28;20040;-58
2023/12/31 00:02:40;;;;;;;5.63;1.63;;;;;;;6.94;100.00;100317.00;5088752;28;20047;-58
2023/12/31 00:05:09;;;;;;;3.80;1.80;;;;;;;7.00;100.00;100308.78;5088947;28;20052;-57
2023/12/31 00:07:39;;;;;;;5.75;1.70;;;;;;;7.03;100.00;100306.00;5087467;28;20064;-58
2023/12/31 00:10:09;;;;;;;4.38;1.95;;;;;;;7.06;100.00;100304.97;5088161;28;20083;-58
2023/12/31 00:12:37;;;;;;;5.30;2.08;;;;;;;7.05;100.00;100308.53;5088070;28;20055;-58
2023/12/31 00:15:06;;;;;;;5.60;1.63;;;;;;;7.06;100.00;100302.34;5088375;28;20506;-58
2023/12/31 00:17:35;;;;;;;4.50;1.52;;;;;;;7.09;100.00;100289.13;5088450;28;20054;-58
2023/12/31 00:20:05;;;;;;;7.55;2.35;;;;;;;7.16;100.00;100284.34;5088576;28;20550;-57
2023/12/31 00:22:34;;;;;;;3.90;1.20;;;;;;;7.21;100.00;100277.94;5086395;28;20059;-57
2023/12/31 00:25:03;;;;;;;3.13;1.08;;;;;;;7.21;100.00;100272.69;5085203;28;20132;-57
2023/12/31 00:27:31;;;;;;;5.32;1.45;;;;;;;7.27;100.00;100263.63;5082951;28;20048;-58
2023/12/31 00:29:59;;;;;;;2.33;0.88;;;;;;;7.32;100.00;100256.34;5085413;28;20040;-58
2023/12/31 00:32:27;;;;;;;3.38;1.20;;;;;;;7.39;100.00;100252.41;5088280;28;20037;-58
2023/12/31 00:34:57;;;;;;;2.55;0.90;;;;;;;7.41;100.00;100249.72;5088271;28;20430;-57
2023/12/31 00:37:25;;;;;;;3.80;1.00;;;;;;;7.45;100.00;100252.03;5087826;28;20048;-57
2023/12/31 00:39:53;;;;;;;3.25;1.00;;;;;;;7.53;100.00;100251.56;5086707;28;20063;-57
2023/12/31 00:42:21;;;;;;;3.47;1.20;;;;;;;7.54;100.00;100242.78;5087384;28;20053;-57
2023/12/31 00:44:50;;;;;;;2.60;1.15;;;;;;;7.61;100.00;100235.41;5087510;28;20054;-58
2023/12/31 00:47:18;;;;;;;1.90;1.02;;;;;;;7.61;100.00;100238.84;5087656;28;20048;-58
2023/12/31 00:49:46;;;;;;;4.82;1.30;;;;;;;7.68;100.00;100230.63;5087897;28;20044;-57
2023/12/31 00:52:16;;;;;;;2.47;1.10;;;;;;;7.71;100.00;100218.16;5084917;28;20043;-57
2023/12/31 00:54:44;;;;;;;2.17;1.00;;;;;;;7.69;100.00;100214.81;5074315;28;20060;-46
2023/12/31 00:57:12;;;;;;;3.10;1.20;;;;;;;7.69;100.00;100208.72;5074081;28;20097;-48
2023/12/31 00:59:40;;;;;;;4.85;1.10;;;;;;;7.72;100.00;100208.56;5074278;28;20150;-46
2023/12/31 01:02:08;;;;;;;2.33;1.25;;;;;;;7.71;100.00;100201.63;5074230;28;20408;-47
2023/12/31 01:04:37;;;;;;;2.95;1.30;;;;;;;7.75;100.00;100197.88;5071702;28;20523;-47
2023/12/31 01:07:05;;;;;;;2.65;1.30;;;;;;;7.80;100.00;100185.34;5070414;28;20045;-47
2023/12/31 01:09:36;;;;;;;2.38;1.10;;;;;;;7.87;100.00;100183.19;5074240;28;20329;-47
2023/12/31 01:12:04;;;;;;;1.95;0.90;;;;;;;7.91;100.00;100177.63;5074325;28;20135;-46
2023/12/31 01:14:35;;;;;;;2.85;1.00;;;;;;;7.88;100.00;100169.97;5072933;28;20036;-45
2023/12/31 01:17:04;;;;;;;2.83;1.10;;;;;;;7.89;100.00;100162.97;5074137;28;20059;-46
2023/12/31 01:19:32;;;;;;;2.33;0.90;;;;;;;7.91;100.00;100155.84;5073870;28;20052;-47
2023/12/31 01:22:00;;;;;;;1.70;0.90;;;;;;;7.82;100.00;100157.28;5073643;28;20036;-47
2023/12/31 01:24:29;;;;;;;2.83;1.00;;;;;;;7.87;100.00;100130.81;5073830;28;20094;-46
2023/12/31 01:27:01;;;;;;;1.02;0.80;;;;;;;7.86;100.00;100140.44;5072405;28;20063;-48
2023/12/31 01:29:30;;;;;;;3.92;0.98;;;;;;;7.95;100.00;100131.16;5073775;28;20044;-46
2023/12/31 01:31:59;;;;;;;2.33;0.90;;;;;;;7.87;100.00;100128.19;5073630;28;20045;-47
2023/12/31 01:34:27;;;;;;;2.40;0.98;;;;;;;7.89;100.00;100134.97;5073659;28;20067;-47
2023/12/31 01:36:56;;;;;;;3.58;1.10;;;;;;;7.85;100.00;100130.88;5073571;28;20041;-49
2023/12/31 01:39:24;;;;;;;4.05;0.98;;;;;;;7.86;100.00;100124.72;5073596;28;20075;-46
2023/12/31 01:41:52;;;;;;;2.33;0.82;;;;;;;7.78;100.00;100124.38;5073230;28;20499;-47
2023/12/31 01:44:21;;;;;;;5.18;1.35;;;;;;;7.80;100.00;100127.75;5073432;28;20119;-46
2023/12/31 01:46:50;;;;;;;2.65;1.00;;;;;;;7.85;100.00;100120.41;5073236;28;20494;-49
2023/12/31 01:49:18;;;;;;;1.77;1.02;;;;;;;7.80;100.00;100117.28;5073399;28;20044;-47
2023/12/31 01:51:47;;;;;;;1.25;0.90;;;;;;;7.78;100.00;100121.75;5073469;28;20447;-48
2023/12/31 01:54:17;;;;;;;3.05;1.08;;;;;;;7.76;100.00;100110.56;5069820;28;20057;-50
2023/12/31 01:56:45;;;;;;;2.65;1.10;;;;;;;7.85;100.00;100106.50;5068615;28;20047;-58
2023/12/31 01:59:14;;;;;;;3.72;1.13;;;;;;;7.84;100.00;100103.06;5072145;28;20384;-58
2023/12/31 02:01:45;;;;;;;1.75;1.05;;;;;;;7.81;100.00;100099.78;5073214;28;20571;-58
2023/12/31 02:04:23;;;;;;;3.25;1.20;;;;;;;7.78;100.00;100092.97;5071919;28;20495;-58
2023/12/31 02:06:52;;;;;;;2.13;1.00;;;;;;;7.84;100.00;100102.19;5072878;28;20076;-57
2023/12/31 02:09:20;;;;;;;3.45;1.08;;;;;;;7.77;100.00;100086.91;5071606;28;20044;-57
2023/12/31 02:11:48;;;;;;;4.10;1.17;;;;;;;7.78;100.00;100090.34;5072669;28;20118;-57
2023/12/31 02:14:16;;;;;;;1.40;1.00;;;;;;;7.84;100.00;100078.63;5068342;28;20041;-58
2023/12/31 02:16:46;;;;;;;5.32;1.35;;;;;;;7.72;100.00;100080.28;5070591;28;20052;-57
2023/12/31 02:19:15;;;;;;;3.38;1.17;;;;;;;7.72;100.00;100061.97;5072526;28;20044;-58
2023/12/31 02:21:43;;;;;;;3.13;1.17;;;;;;;7.67;100.00;100062.25;5072477;28;20093;-58
2023/12/31 02:24:14;;;;;;;3.58;1.27;;;;;;;7.59;100.00;100051.44;5070832;28;20545;-57
2023/12/31 02:26:44;;;;;;;3.28;1.20;;;;;;;7.64;100.00;100043.31;5070789;28;20052;-57
2023/12/31 02:29:12;;;;;;;2.58;1.10;;;;;;;7.65;100.00;100047.59;5070419;28;20040;-57
2023/12/31 02:31:41;;;;;;;3.03;1.38;;;;;;;7.59;100.00;100040.97;5068048;28;20044;-57
2023/12/31 02:34:09;;;;;;;3.33;1.50;;;;;;;7.56;100.00;100039.41;5070689;28;20044;-57
2023/12/31 02:36:37;;;;;;;2.50;1.60;;;;;;;7.51;100.00;100036.28;5072479;28;20040;-57
2023/12/31 02:39:05;;;;;;;3.20;1.42;;;;;;;7.51;100.00;100023.19;5072084;28;20055;-58
2023/12/31 02:41:34;;;;;;;3.38;1.38;;;;;;;7.44;100.00;100012.28;5068489;28;20052;-58
2023/12/31 02:44:04;;;;;;;4.97;1.65;;;;;;;7.41;100.00;100009.84;5067552;28;20048;-45
2023/12/31 02:46:32;;;;;;;3.78;1.60;;;;;;;7.39;100.00;100014.34;5070651;28;20500;-47
2023/12/31 02:49:00;;;;;;;4.18;1.58;;;;;;;7.39;100.00;100016.97;5072097;28;20045;-46
2023/12/31 02:51:29;;;;;;;2.22;1.40;;;;;;;7.40;100.00;100004.72;5072097;28;20048;-46
2023/12/31 02:53:57;;;;;;;2.85;1.30;;;;;;;7.44;100.00;100003.56;5072168;28;20115;-46
2023/12/31 02:56:28;;;;;;;2.97;1.42;;;;;;;7.50;100.00;99992.72;5072019;28;20558;-57
2023/12/31 02:58:56;;;;;;;2.63;1.33;;;;;;;7.44;100.00;99990.50;5071927;28;20059;-57
2023/12/31 03:01:25;;;;;;;3.88;1.50;;;;;;;7.40;100.00;99987.25;5072135;28;20087;-58
2023/12/31 03:03:54;;;;;;;2.65;1.33;;;;;;;7.41;100.00;99972.38;5071809;28;20037;-58
2023/12/31 03:06:22;;;;;;;2.78;1.50;;;;;;;7.39;100.00;99976.88;5071918;28;20036;-57
2023/12/31 03:08:50;;;;;;;2.70;1.50;;;;;;;7.40;100.00;99978.56;5071839;28;20135;-58
2023/12/31 03:11:18;;;;;;;2.78;1.23;;;;;;;7.45;100.00;99976.47;5069575;28;20519;-57
2023/12/31 03:13:46;;;;;;;3.13;1.30;;;;;;;7.44;100.00;99962.56;5066019;28;20694;-58
2023/12/31 03:16:14;;;;;;;2.65;1.50;;;;;;;7.44;100.00;99951.25;5067555;28;20040;-57
2023/12/31 03:18:44;;;;;;;3.42;1.30;;;;;;;7.43;100.00;99946.94;5068379;28;20048;-58
2023/12/31 03:21:15;;;;;;;3.17;1.30;;;;;;;7.42;100.00;99945.31;5069486;28;20098;-57
2023/12/31 03:23:43;;;;;;;3.83;1.38;;;;;;;7.36;100.00;99938.69;5071472;28;20044;-57
2023/12/31 03:26:12;;;;;;;5.00;1.55;;;;;;;7.40;100.00;99931.47;5071717;28;20049;-57
2023/12/31 03:28:40;;;;;;;2.72;1.30;;;;;;;7.40;100.00;99931.47;5071637;28;20118;-57
2023/12/31 03:31:10;;;;;;;1.60;0.93;;;;;;;7.51;100.00;99929.00;5071641;28;20055;-57
2023/12/31 03:33:38;;;;;;;4.50;1.33;;;;;;;7.50;100.00;99923.84;5071837;28;20127;-57
2023/12/31 03:36:08;;;;;;;3.47;1.15;;;;;;;7.52;100.00;99914.13;5070203;28;20056;-57
2023/12/31 03:38:36;;;;;;;3.28;1.30;;;;;;;7.42;100.00;99901.66;5070067;28;20063;-57
2023/12/31 03:41:05;;;;;;;3.03;1.13;;;;;;;7.43;100.00;99899.84;5068606;28;20045;-58
2023/12/31 03:43:33;;;;;;;3.05;1.20;;;;;;;7.47;100.00;99893.47;5067251;28;20503;-58
2023/12/31 03:46:01;;;;;;;2.97;1.27;;;;;;;7.48;100.00;99884.69;5069996;28;20056;-57
2023/12/31 03:48:29;;;;;;;4.78;1.58;;;;;;;7.44;100.00;99885.84;5069980;28;20054;-57
2023/12/31 03:50:59;;;;;;;3.92;1.20;;;;;;;7.50;100.00;99872.38;5071415;28;20068;-57
2023/12/31 03:53:28;;;;;;;4.13;1.60;;;;;;;7.45;100.00;99866.59;5071395;28;20043;-58
2023/12/31 03:55:56;;;;;;;3.13;1.30;;;;;;;7.51;100.00;99855.72;5071392;28;20102;-57
2023/12/31 03:58:25;;;;;;;3.67;1.27;;;;;;;7.50;100.00;99856.66;5071505;28;20484;-59
2023/12/31 04:00:53;;;;;;;4.28;1.70;;;;;;;7.50;100.00;99847.97;5071348;28;20055;-49
2023/12/31 04:03:22;;;;;;;4.72;1.55;;;;;;;7.47;100.00;99840.31;5071199;28;20052;-49
2023/12/31 04:05:52;;;;;;;2.85;1.25;;;;;;;7.47;100.00;99832.47;5071296;28;20534;-47
2023/12/31 04:08:22;;;;;;;4.00;1.55;;;;;;;7.43;100.00;99826.59;5071038;28;20043;-47
2023/12/31 04:10:52;;;;;;;3.47;1.40;;;;;;;7.41;100.00;99828.50;5071316;28;20364;-49
2023/12/31 04:13:20;;;;;;;2.85;1.40;;;;;;;7.41;100.00;99811.03;5071180;28;20045;-50
2023/12/31 04:15:51;;;;;;;3.53;1.25;;;;;;;7.40;100.00;99812.00;5071597;28;20420;-58
2023/12/31 04:18:19;;;;;;;3.88;1.25;;;;;;;7.43;100.00;99801.31;5071393;28;20499;-57
2023/12/31 04:20:48;;;;;;;5.30;1.45;;;;;;;7.39;100.00;99796.38;5069981;28;20102;-57
2023/12/31 04:23:16;;;;;;;4.30;1.40;;;;;;;7.42;100.00;99785.72;5070801;28;20045;-57
2023/12/31 04:25:44;;;;;;;2.78;1.20;;;;;;;7.37;100.00;99774.72;5071265;28;20047;-47
2023/12/31 04:28:14;;;;;;;3.08;1.33;;;;;;;7.43;100.00;99780.38;5072635;28;20056;-51
2023/12/31 04:30:42;;;;;;;3.03;1.40;;;;;;;7.49;100.00;99768.66;5074857;28;20082;-47
2023/12/31 04:33:10;;;;;;;3.83;1.17;;;;;;;7.50;100.00;99774.69;5074698;28;20605;-47
2023/12/31 04:35:40;;;;;;;2.60;1.25;;;;;;;7.44;100.00;99766.38;5074764;28;20599;-46
2023/12/31 04:38:17;;;;;;;3.03;1.30;;;;;;;7.56;100.00;99769.06;5073343;28;20564;-51
2023/12/31 04:40:46;;;;;;;5.00;1.67;;;;;;;7.52;100.00;99755.34;5074671;28;20123;-50
2023/12/31 04:43:15;;;;;;;2.25;1.17;;;;;;;7.53;100.00;99748.34;5074576;28;20055;-50
2023/12/31 04:45:43;;;;;;;4.18;1.33;;;;;;;7.50;100.00;99748.53;5074888;28;20052;-50
2023/12/31 04:48:11;;;;;;;3.25;1.40;;;;;;;7.58;100.00;99735.75;5074525;28;20052;-51
2023/12/31 04:50:40;;;;;;;2.88;1.27;;;;;;;7.52;100.00;99736.22;5074549;28;20747;-51
2023/12/31 04:53:08;;;;;;;4.43;1.50;;;;;;;7.55;100.00;99730.75;5074423;28;20084;-47
2023/12/31 04:55:38;;;;;;;5.30;1.73;;;;;;;7.53;100.00;99732.66;5074419;28;20517;-47
2023/12/31 04:58:06;;;;;;;3.83;1.40;;;;;;;7.54;100.00;99727.31;5074331;28;20048;-46
2023/12/31 05:00:38;;;;;;;3.30;1.90;;;;;;;7.57;100.00;99727.09;5072933;28;20094;-46
2023/12/31 05:03:06;;;;;;;3.20;1.45;;;;;;;7.60;100.00;99712.94;5074497;28;20059;-48
2023/12/31 05:05:34;;;;;;;3.90;1.75;;;;;;;7.52;100.00;99716.09;5074091;28;20434;-49
2023/12/31 05:08:05;;;;;;;2.28;1.45;;;;;;;7.56;100.00;99712.31;5074062;28;20040;-49
2023/12/31 05:10:34;;;;;;;2.72;1.42;;;;;;;7.51;100.00;99703.13;5074012;28;20052;-46
2023/12/31 05:13:04;;;;;;;3.13;1.80;;;;;;;7.59;100.00;99700.81;5073952;28;20593;-57
2023/12/31 05:15:33;;;;;;;3.83;1.80;;;;;;;7.55;100.00;99683.66;5073894;28;20476;-58
2023/12/31 05:18:02;;;;;;;4.10;1.70;;;;;;;7.54;100.00;99676.75;5073892;28;20056;-58
2023/12/31 05:20:31;;;;;;;3.67;1.70;;;;;;;7.58;100.00;99672.97;5073816;28;20045;-58
2023/12/31 05:22:59;;;;;;;4.35;1.70;;;;;;;7.51;100.00;99672.59;5073823;28;20135;-58
2023/12/31 05:25:27;;;;;;;5.38;2.17;;;;;;;7.56;100.00;99662.59;5073668;28;20423;-57
2023/12/31 05:27:55;;;;;;;3.95;1.95;;;;;;;7.59;100.00;99659.78;5072532;28;20040;-58
2023/12/31 05:30:23;;;;;;;5.20;2.25;;;;;;;7.57;100.00;99653.00;5073773;28;20045;-57
2023/12/31 05:32:51;;;;;;;4.57;2.15;;;;;;;7.61;100.00;99641.38;5073836;28;20071;-58
2023/12/31 05:35:24;;;;;;;7.20;2.35;;;;;;;7.57;100.00;99645.97;5073715;28;20119;-57
2023/12/31 05:37:52;;;;;;;4.10;2.08;;;;;;;7.54;100.00;99633.13;5073630;28;20062;-57
2023/12/31 05:40:20;;;;;;;6.95;2.40;;;;;;;7.55;100.00;99634.78;5073388;28;20526;-59
2023/12/31 05:42:49;;;;;;;5.35;2.50;;;;;;;7.53;100.00;99617.53;5073409;28;20079;-58
2023/12/31 05:45:18;;;;;;;4.70;2.25;;;;;;;7.59;100.00;99635.38;5072156;28;20045;-57
2023/12/31 05:47:47;;;;;;;7.88;3.20;;;;;;;7.61;100.00;99615.19;5072094;28;20067;-57
2023/12/31 05:50:16;;;;;;;5.20;2.53;;;;;;;7.63;100.00;99621.13;5073276;28;20036;-58
2023/12/31 05:52:47;;;;;;;4.47;2.70;;;;;;;7.58;100.00;99620.63;5073293;28;20127;-58
2023/12/31 05:55:15;;;;;;;6.70;2.90;;;;;;;7.60;100.00;99616.13;5073362;28;20037;-58
2023/12/31 05:57:43;;;;;;;6.32;2.90;;;;;;;7.63;100.00;99613.28;5073155;28;20110;-58
2023/12/31 06:00:13;;;;;;;6.00;2.55;;;;;;;7.64;100.00;99595.81;5073196;28;20056;-58
2023/12/31 06:02:41;;;;;;;5.05;2.60;;;;;;;7.73;100.00;99600.38;5073297;28;20043;-58
2023/12/31 06:05:10;;;;;;;4.57;2.63;;;;;;;7.72;100.00;99585.63;5072878;28;20076;-58
2023/12/31 06:07:38;;;;;;;6.40;3.13;;;;;;;7.70;100.00;99583.13;5072723;28;20775;-57
2023/12/31 06:10:09;;;;;;;5.00;2.45;;;;;;;7.75;100.00;99574.94;5069806;28;20625;-57
2023/12/31 06:12:40;;;;;;;6.28;3.03;;;;;;;7.79;100.00;99571.97;5070095;28;20090;-58
2023/12/31 06:15:09;;;;;;;5.20;2.60;;;;;;;7.78;100.00;99559.00;5072983;28;20048;-57
2023/12/31 06:17:38;;;;;;;4.63;2.60;;;;;;;7.84;100.00;99569.03;5072928;28;20047;-57
2023/12/31 06:20:08;;;;;;;4.53;2.40;;;;;;;7.85;100.00;99570.66;5071386;28;20131;-56
2023/12/31 06:22:36;;;;;;;6.35;3.20;;;;;;;7.89;100.00;99545.94;5072957;28;20431;-58
2023/12/31 06:25:06;;;;;;;5.68;2.75;;;;;;;7.91;100.00;99556.31;5073088;28;20068;-58
2023/12/31 06:27:38;;;;;;;5.53;2.67;;;;;;;7.92;100.00;99553.59;5069452;28;20050;-58
2023/12/31 06:30:07;;;;;;;6.25;2.60;;;;;;;7.90;100.00;99547.59;5067741;28;20080;-47
2023/12/31 06:32:35;;;;;;;6.43;2.95;;;;;;;7.91;100.00;99544.06;5070986;28;20083;-47
2023/12/31 06:35:04;;;;;;;5.75;2.70;;;;;;;7.97;100.00;99550.59;5072683;28;20044;-48
2023/12/31 06:37:32;;;;;;;6.93;3.28;;;;;;;7.98;100.00;99557.53;5072148;28;20052;-57
2023/12/31 06:40:00;;;;;;;6.00;2.80;;;;;;;7.98;100.00;99548.84;5069984;28;20040;-58
2023/12/31 06:42:30;;;;;;;5.72;2.78;;;;;;;7.97;100.00;99539.31;5066049;28;20435;-57
2023/12/31 06:44:59;;;;;;;6.10;2.78;;;;;;;7.95;100.00;99537.63;5071690;28;20053;-57
2023/12/31 06:47:27;;;;;;;5.45;2.83;;;;;;;7.91;100.00;99532.75;5071971;28;20165;-58
2023/12/31 06:49:56;;;;;;;5.80;3.00;;;;;;;7.90;100.00;99515.38;5070589;28;20487;-58
2023/12/31 06:52:24;;;;;;;6.13;2.72;;;;;;;7.94;100.00;99524.66;5071922;28;20511;-58
2023/12/31 06:54:53;;;;;;;7.65;3.17;;;;;;;7.95;100.00;99527.16;5071903;28;20522;-58
2023/12/31 06:57:21;;;;;;;7.80;2.88;;;;;;;7.93;100.00;99523.84;5071811;28;20046;-58
2023/12/31 06:59:49;;;;;;;6.03;2.63;;;;;;;7.93;100.00;99518.59;5072022;28;20446;-58
2023/12/31 07:02:19;;;;;;;5.78;2.95;;;;;;;7.91;100.00;99511.81;5071949;28;20036;-58
2023/12/31 07:04:47;;;;;;;6.15;3.00;;;;;;;7.91;100.00;99501.34;5070510;28;20033;-57
2023/12/31 07:07:15;;;;;;;6.72;3.10;;;;;;;7.89;100.00;99505.84;5068360;28;20400;-57
2023/12/31 07:09:43;;;;;;;7.30;3.45;;;;;;;7.97;100.00;99497.41;5071529;28;20102;-57
2023/12/31 07:12:12;;;;;;;5.50;2.78;;;;;;;7.87;100.00;99482.41;5071885;28;20127;-57
2023/12/31 07:14:40;;;;;;;6.82;3.45;;;;;;;7.87;100.00;99485.03;5071937;28;20045;-58
2023/12/31 07:17:09;;;;;;;6.38;2.55;;;;;;;7.86;100.00;99478.09;5071822;28;20045;-57
2023/12/31 07:19:39;;;;;;;7.22;3.58;;;;;;;7.86;100.00;99472.88;5071715;28;20048;-58
2023/12/31 07:22:08;;;;;;;7.22;3.50;;;;;;;7.90;100.00;99474.31;5071625;28;20048;-58
2023/12/31 07:24:36;;;;;;;6.78;3.65;;;;;;;7.92;100.00;99471.56;5071580;28;20048;-58
2023/12/31 07:27:08;;;;;;;6.65;3.05;;;;;;;7.95;100.00;99466.13;5071659;28;20056;-57
2023/12/31 07:29:36;;;;;;;5.97;2.95;;;;;;;7.92;100.00;99482.91;5069989;28;20510;-57
2023/12/31 07:32:05;;;;;;;6.35;3.22;;;;;;;7.93;100.00;99475.88;5068399;28;20080;-58
2023/12/31 07:34:33;;;;;;;7.07;3.08;;;;;;;7.94;100.00;99454.81;5070635;28;20057;-58
2023/12/31 07:37:03;;;;;;;6.85;3.25;;;;;;;7.90;100.00;99463.84;5071485;28;20044;-57
2023/12/31 07:39:32;;;;;;;7.07;3.42;;;;;;;7.85;100.00;99454.66;5071890;28;20503;-57
2023/12/31 07:42:00;;;;;;;9.77;3.67;;;;;;;7.84;100.00;99458.22;5071249;28;20113;-58
2023/12/31 07:44:28;;;;;;;8.98;3.40;;;;;;;7.85;100.00;99465.13;5071478;28;20036;-58
2023/12/31 07:46:56;;;;;;;11.80;3.90;;;;;;;7.84;100.00;99472.16;5070168;28;20174;-57
2023/12/31 07:49:24;;;;;;;9.50;3.78;;;;;;;7.85;100.00;99467.75;5071735;28;20041;-58
2023/12/31 07:51:56;;;;;;;8.85;3.75;;;;;;;7.82;100.00;99458.34;5071377;28;20407;-57
2023/12/31 07:54:26;;;;;;;10.38;3.33;;;;;;;7.84;100.00;99458.22;5071325;28;20053;-58
2023/12/31 07:56:54;;;;;;;6.43;3.10;;;;;;;7.86;100.00;99444.06;5071290;28;20041;-57
2023/12/31 07:59:24;;;;;;;6.00;2.88;;;;;;;7.82;100.00;99447.88;5069947;28;20063;-58
2023/12/31 08:01:52;;;;;;;5.95;3.28;;;;;;;7.80;100.00;99449.78;5071219;28;20101;-57
2023/12/31 08:04:22;;;;;;;5.80;3.10;;;;;;;7.81;100.00;99445.38;5074727;28;20040;-58
2023/12/31 08:06:50;;;;;;;12.52;3.30;;;;;;;7.86;100.00;99441.47;5074022;28;20381;-58
2023/12/31 08:09:18;;;;;;;5.43;2.95;;;;;;;7.86;100.00;99438.84;5071898;28;20127;-57
2023/12/31 08:11:48;;;;;;;7.18;3.15;;;;;;;7.81;100.00;99430.50;5074081;28;20044;-57
2023/12/31 08:14:16;;;;;;;7.85;3.40;;;;;;;7.85;100.00;99431.13;5071850;28;20517;-57
2023/12/31 08:16:45;;;;;;;7.28;3.50;;;;;;;7.86;100.00;99428.38;5072111;28;20518;-57
2023/12/31 08:19:13;;;;;;;5.97;3.25;;;;;;;7.83;100.00;99420.75;5073986;28;20044;-58
2023/12/31 08:21:41;;;;;;;6.05;3.38;;;;;;;7.93;100.00;99418.28;5069926;28;20052;-58
2023/12/31 08:24:09;;;;;;;6.78;3.30;;;;;;;7.89;100.00;99409.00;5072726;28;20063;-58
2023/12/31 08:26:37;;;;;;;8.88;3.60;;;;;;;7.96;100.00;99402.31;5074721;28;20045;-58
2023/12/31 08:29:07;;;;;;;6.47;3.58;;;;;;;7.90;100.00;99410.66;5074708;28;20061;-57
2023/12/31 08:31:35;;;;;;;7.07;3.70;;;;;;;7.96;100.00;99399.69;5073810;28;20040;-57
2023/12/31 08:34:06;;;;;;;6.68;3.30;;;;;;;7.92;100.00;99399.13;5071171;28;20511;-57
2023/12/31 08:36:35;;;;;;;6.95;3.33;;;;;;;7.98;100.00;99402.22;5072920;28;20037;-58
2023/12/31 08:39:06;;;;;;;6.22;3.20;;;;;;;8.01;100.00;99399.38;5074649;28;20051;-58
2023/12/31 08:41:35;;;;;;;6.95;3.55;;;;;;;8.03;100.00;99389.59;5073841;28;20446;-58
2023/12/31 08:44:04;;;;;;;7.30;3.10;;;;;;;8.06;100.00;99381.53;5074221;28;20495;-57
2023/12/31 08:46:34;;;;;;;5.85;3.00;;;;;;;8.03;100.00;99379.13;5074366;28;20041;-58
2023/12/31 08:49:02;;;;;;;5.88;3.25;;;;;;;8.10;100.00;99372.47;5074461;28;20559;-57
2023/12/31 08:51:30;;;;;;;7.10;3.45;;;;;;;8.10;100.00;99378.53;5074782;28;20519;-58
2023/12/31 08:53:58;;;;;;;7.15;3.40;;;;;;;8.10;100.00;99382.94;5074548;28;20048;-58
2023/12/31 08:56:26;;;;;;;6.50;3.40;;;;;;;8.13;100.00;99370.44;5074400;28;20045;-58
2023/12/31 08:58:55;;;;;;;7.65;3.45;;;;;;;8.19;100.00;99363.03;5074381;28;20048;-56
2023/12/31 09:01:23;;;;;;;6.00;3.40;;;;;;;8.21;100.00;99369.84;5074134;28;20052;-57
2023/12/31 09:03:53;;;;;;;6.75;3.53;;;;;;;8.23;100.00;99367.09;5074313;28;20048;-58
2023/12/31 09:06:22;;;;;;;5.82;2.90;;;;;;;8.30;100.00;99363.03;5074206;28;20488;-57
2023/12/31 09:08:51;;;;;;;6.40;3.17;;;;;;;8.34;100.00;99367.06;5074162;28;20048;-58
2023/12/31 09:11:20;;;;;;;6.97;3.00;;;;;;;8.34;100.00;99359.22;5071400;28;20499;-58
2023/12/31 09:13:48;;;;;;;7.28;3.40;;;;;;;8.33;100.00;99354.09;5069487;28;20052;-58
2023/12/31 09:16:16;;;;;;;6.18;3.28;;;;;;;8.38;100.00;99363.25;5070204;28;20051;-58
2023/12/31 09:18:47;;;;;;;6.75;3.30;;;;;;;8.47;100.00;99372.22;5073305;28;20055;-57
2023/12/31 09:21:16;;;;;;;6.40;3.40;;;;;;;8.43;100.00;99358.47;5073933;28;20052;-58
2023/12/31 09:23:45;;;;;;;7.40;3.20;;;;;;;8.53;100.00;99358.59;5070708;28;20058;-58
2023/12/31 09:26:13;;;;;;;7.22;2.97;;;;;;;8.56;100.00;99368.88;5071492;28;20047;-58
2023/12/31 09:28:42;;;;;;;6.47;3.45;;;;;;;8.52;100.00;99364.81;5073871;28;20098;-58
2023/12/31 09:31:12;;;;;;;7.63;3.20;;;;;;;8.52;100.00;99370.06;5073652;28;20538;-49
2023/12/31 09:33:40;;;;;;;8.95;3.58;;;;;;;8.58;100.00;99368.72;5073628;28;20045;-46
2023/12/31 09:36:09;;;;;;;6.63;3.40;;;;;;;8.59;100.00;99365.16;5073732;28;20068;-46
2023/12/31 09:38:44;;;;;;;6.05;3.10;;;;;;;8.65;100.00;99369.91;5073785;28;20045;-48
2023/12/31 09:41:23;;;;;;;5.22;2.90;;;;;;;8.71;100.00;99374.66;5073538;28;20144;-49
2023/12/31 09:43:54;;;;;;;5.40;2.80;;;;;;;8.71;100.00;99373.81;5073604;28;20044;-48
2023/12/31 09:46:30;;;;;;;6.00;3.00;;;;;;;8.72;100.00;99376.31;5072219;28;20044;-49
2023/12/31 09:49:02;;;;;;;5.85;2.75;;;;;;;8.71;100.00;99368.56;5073501;28;20041;-48
2023/12/31 09:51:31;;;;;;;4.55;2.45;;;;;;;8.74;100.00;99369.16;5073464;28;20139;-48
2023/12/31 09:54:05;;;;;;;7.55;2.50;;;;;;;8.76;100.00;99376.91;5073312;28;20040;-50
2023/12/31 09:56:34;;;;;;;5.68;2.63;;;;;;;8.73;100.00;99379.78;5073256;28;20047;-49
2023/12/31 09:59:03;;;;;;;7.68;3.22;;;;;;;8.76;100.00;99382.13;5073385;28;20135;-49
2023/12/31 10:01:37;;;;;;;6.40;2.88;;;;;;;8.75;100.00;99381.31;5073378;28;20139;-48
2023/12/31 10:04:05;;;;;;;6.10;2.83;;;;;;;8.79;100.00;99374.88;5073258;28;20049;-49
2023/12/31 10:06:39;;;;;;;5.05;2.47;;;;;;;8.84;100.00;99374.50;5072623;28;20056;-47
2023/12/31 10:09:11;;;;;;;5.20;2.47;;;;;;;8.85;100.00;99365.66;5072790;28;20048;-48
2023/12/31 10:11:42;;;;;;;5.35;2.13;;;;;;;8.87;100.00;99360.31;5072874;28;20070;-47
2023/12/31 10:14:10;;;;;;;4.47;2.10;;;;;;;8.88;100.00;99383.75;5072946;28;20499;-46
2023/12/31 10:16:43;;;;;;;3.65;1.95;;;;;;;8.89;100.00;99374.09;5072265;28;20562;-47
2023/12/31 10:19:12;;;;;;;4.32;2.13;;;;;;;8.87;100.00;99376.03;5072438;28;20056;-47
2023/12/31 10:21:41;;;;;;;4.25;2.00;;;;;;;8.88;100.00;99375.91;5072694;28;20411;-47
2023/12/31 10:24:11;;;;;;;3.30;1.85;;;;;;;8.86;100.00;99374.34;5071436;28;20083;-46
2023/12/31 10:26:40;;;;;;;6.35;2.10;;;;;;;8.88;100.00;99381.16;5071789;28;20037;-47
2023/12/31 10:29:11;;;;;;;4.68;2.10;;;;;;;8.84;100.00;99373.66;5072751;28;20098;-48
2023/12/31 10:31:39;;;;;;;3.85;2.05;;;;;;;8.83;100.00;99364.94;5072537;28;20053;-46
2023/12/31 10:34:15;;;;;;;3.47;1.52;;;;;;;8.83;100.00;99358.88;5068837;28;20040;-45
2023/12/31 10:36:44;;;;;;;6.72;2.20;;;;;;;8.84;100.00;99369.25;5068410;28;20057;-47
2023/12/31 10:39:26;;;;;;;3.85;1.88;;;;;;;8.84;100.00;99363.19;5068684;28;20060;-45
2023/12/31 10:41:59;;;;;;;9.07;2.30;;;;;;;8.81;100.00;99348.53;5072229;28;20103;-47
2023/12/31 10:44:28;;;;;;;6.35;2.20;;;;;;;8.86;100.00;99361.25;5069072;28;20055;-45
2023/12/31 10:46:59;;;;;;;4.82;1.77;;;;;;;8.88;100.00;99370.66;5069381;28;20040;-46
2023/12/31 10:49:30;;;;;;;5.68;2.00;;;;;;;8.89;100.00;99367.09;5072364;28;20041;-46
2023/12/31 10:52:02;;;;;;;5.55;1.55;;;;;;;8.89;100.00;99369.72;5072217;28;20051;-46
2023/12/31 10:54:42;;;;;;;8.00;2.90;;;;;;;8.89;100.00;99367.09;5072226;28;20059;-47
2023/12/31 10:57:10;;;;;;;9.32;3.72;;;;;;;8.89;100.00;99356.59;5071959;28;20040;-45
2023/12/31 10:59:42;;;;;;;9.82;3.88;;;;;;;8.92;100.00;99361.59;5072121;28;20067;-45
2023/12/31 11:02:16;;;;;;;6.82;3.13;;;;;;;8.91;100.00;99361.72;5072024;28;20044;-48
2023/12/31 11:04:45;;;;;;;7.28;3.00;;;;;;;8.90;100.00;99349.56;5072138;28;20531;-45
2023/12/31 11:07:16;;;;;;;6.90;1.95;;;;;;;8.90;100.00;99358.28;5071804;28;20503;-47
2023/12/31 11:09:49;;;;;;;5.10;1.98;;;;;;;8.93;100.00;99352.78;5068752;28;20446;-46
2023/12/31 11:12:18;;;;;;;9.35;5.35;;;;;;;8.94;100.00;99357.06;5101963;28;20087;-46
2023/12/31 11:14:51;;;;;;;5.55;2.17;;;;;;;8.93;100.00;99365.03;5071770;28;20062;-46
2023/12/31 11:17:46;;;;;;;4.28;1.45;;;;;;;8.85;100.00;99368.28;5071900;28;20559;-50
2023/12/31 11:20:40;;;;;;;3.95;1.52;;;;;;;8.75;100.00;99354.25;5071936;28;20056;-46
2023/12/31 11:23:17;;;;;;;7.78;1.80;;;;;;;8.72;100.00;99365.00;5070507;28;20057;-50
2023/12/31 11:25:48;;;;;;;4.50;1.67;;;;;;;8.70;100.00;99362.50;5069294;28;20057;-46
2023/12/31 11:28:17;;;;;;;5.82;1.67;;;;;;;8.65;100.00;99355.97;5067429;28;20494;-47
2023/12/31 11:30:47;;;;;;;3.20;1.40;;;;;;;8.58;100.00;99361.69;5071623;28;20041;-48
2023/12/31 11:33:17;;;;;;;4.22;1.55;;;;;;;8.52;100.00;99362.19;5071578;28;20040;-48
2023/12/31 11:35:46;;;;;;;6.13;1.50;;;;;;;8.49;100.00;99354.56;5070546;28;20056;-49
2023/12/31 11:38:15;;;;;;;5.72;1.58;;;;;;;8.41;100.00;99355.16;5071443;28;20037;-49
2023/12/31 11:40:43;;;;;;;2.03;1.10;;;;;;;8.40;100.00;99356.13;5071642;28;20052;-51